Terminal Aerodrome Forecast
Issued by NWS

Home | Current Version | Previous Version | Text Only | Print | Product List | Glossary On
Versions: 1 2 3 4 5 6 7 8 9 10 11 12 13
000
FTUS45 KRIW 241129
TAFRKS
TAF
KRKS 241129Z 2412/2512 05012G22KT P6SM VCSH SCT015 OVC026
      TEMPO 2412/2415 BKN015
     FM241700 06014G22KT P6SM SCT025 BKN040
     FM242200 06014G20KT P6SM SCT040
     FM250100 11011KT P6SM SKC
     FM250800 VRB05KT P6SM SKC=

USA.gov is the U.S. government's official web portal to all federal, state and local government web resources and services.